createdAt,value
2022-10-16T00:04:06.733Z,99.92
2022-10-16T00:09:33.462Z,100.00
2022-10-16T00:14:57.730Z,99.83
2022-10-16T00:20:23.647Z,100.00
2022-10-16T00:25:58.084Z,99.56
2022-10-16T00:31:23.531Z,99.53
2022-10-16T00:36:49.461Z,99.02
2022-10-16T00:42:20.220Z,98.75
2022-10-16T00:47:50.111Z,98.21
2022-10-16T00:53:17.161Z,97.35
2022-10-16T00:58:42.353Z,97.49
2022-10-16T01:04:06.333Z,97.51
2022-10-16T01:09:39.613Z,97.92
2022-10-16T01:15:12.358Z,98.93
2022-10-16T01:20:43.898Z,99.81
2022-10-16T01:26:29.952Z,100.00
2022-10-16T01:32:01.326Z,100.00
2022-10-16T01:37:35.152Z,100.00
2022-10-16T01:43:05.249Z,100.00
2022-10-16T01:48:31.740Z,100.00
2022-10-16T01:54:01.238Z,100.00
2022-10-16T01:59:32.133Z,100.00
2022-10-16T02:05:04.350Z,100.00
2022-10-16T02:10:32.446Z,100.00
2022-10-16T02:15:57.024Z,100.00
2022-10-16T02:21:27.653Z,100.00
2022-10-16T02:26:59.248Z,100.00
2022-10-16T02:32:29.454Z,100.00
2022-10-16T02:37:56.968Z,100.00
2022-10-16T02:43:21.805Z,100.00
2022-10-16T02:48:47.540Z,100.00
2022-10-16T02:54:12.816Z,100.00
2022-10-16T02:59:36.731Z,100.00
2022-10-16T03:05:02.302Z,100.00
2022-10-16T03:10:28.446Z,100.00
2022-10-16T03:15:54.291Z,100.00
2022-10-16T03:21:18.977Z,100.00
2022-10-16T03:26:44.918Z,100.00
2022-10-16T03:32:10.348Z,100.00
2022-10-16T03:37:34.777Z,100.00
2022-10-16T03:43:01.682Z,100.00
2022-10-16T03:48:29.130Z,100.00
2022-10-16T03:53:54.134Z,100.00
2022-10-16T03:59:20.198Z,100.00
2022-10-16T04:04:44.747Z,100.00
2022-10-16T04:10:11.596Z,100.00
2022-10-16T04:15:37.122Z,100.00
2022-10-16T04:21:04.984Z,100.00
2022-10-16T04:26:29.588Z,100.00
2022-10-16T04:31:55.119Z,100.00
2022-10-16T04:37:18.948Z,100.00
2022-10-16T04:42:43.145Z,100.00
2022-10-16T04:48:08.696Z,100.00
2022-10-16T04:53:33.273Z,95.37
2022-10-16T04:58:57.477Z,81.53
2022-10-16T05:04:27.425Z,67.88
2022-10-16T05:09:51.517Z,58.00
2022-10-16T05:15:16.211Z,53.35
2022-10-16T05:20:41.566Z,50.49
2022-10-16T05:26:05.610Z,48.11
2022-10-16T05:31:30.850Z,45.18
2022-10-16T05:36:56.226Z,44.47
2022-10-16T05:42:21.997Z,42.22
2022-10-16T05:47:46.537Z,40.98
2022-10-16T05:53:12.090Z,39.63
2022-10-16T05:58:38.116Z,38.89
2022-10-16T06:04:01.982Z,38.60
2022-10-16T06:09:28.610Z,38.40
2022-10-16T06:14:53.594Z,39.09
2022-10-16T06:20:17.733Z,37.80
2022-10-16T06:25:46.485Z,37.38
2022-10-16T06:31:12.390Z,36.06
2022-10-16T06:36:37.502Z,36.01
2022-10-16T06:42:03.302Z,37.28
2022-10-16T06:47:34.472Z,37.65
2022-10-16T06:52:59.009Z,37.67
2022-10-16T06:58:25.831Z,39.97
2022-10-16T07:03:54.876Z,38.62
2022-10-16T07:09:19.251Z,37.65
2022-10-16T07:14:45.327Z,37.51
2022-10-16T07:20:12.170Z,37.10
2022-10-16T07:25:37.039Z,36.80
2022-10-16T07:31:06.967Z,35.50
2022-10-16T07:36:33.875Z,33.71
2022-10-16T07:41:59.494Z,33.12
2022-10-16T07:47:25.720Z,32.41
2022-10-16T07:52:54.115Z,32.61
2022-10-16T07:58:18.842Z,32.39
2022-10-16T08:03:46.219Z,33.02
2022-10-16T08:09:11.349Z,33.21
2022-10-16T08:14:35.783Z,34.14
2022-10-16T08:20:02.755Z,33.13
2022-10-16T08:25:28.215Z,32.88
2022-10-16T08:30:53.855Z,32.95
2022-10-16T08:36:20.051Z,32.88
2022-10-16T08:42:11.594Z,30.86
2022-10-16T08:47:46.838Z,30.87
2022-10-16T08:53:18.617Z,30.96
2022-10-16T08:58:43.060Z,31.48
2022-10-16T09:04:52.870Z,31.70
2022-10-16T09:10:32.250Z,31.33
2022-10-16T09:16:09.944Z,33.47
2022-10-16T09:21:38.259Z,33.32
2022-10-16T09:27:04.429Z,31.94
2022-10-16T09:32:30.701Z,33.37
2022-10-16T09:37:57.223Z,33.72
2022-10-16T09:43:31.860Z,33.84
2022-10-16T09:48:59.677Z,34.04
2022-10-16T09:54:24.758Z,35.13
2022-10-16T09:59:52.660Z,34.75
2022-10-16T10:05:23.121Z,34.28
2022-10-16T10:10:51.071Z,34.10
2022-10-16T10:16:25.917Z,33.35
2022-10-16T10:21:52.786Z,32.57
2022-10-16T10:27:20.734Z,32.68
2022-10-16T10:32:55.924Z,32.53
2022-10-16T10:38:32.984Z,32.91
2022-10-16T10:44:09.988Z,34.64
2022-10-16T10:49:50.981Z,33.47
2022-10-16T10:55:24.908Z,33.73
2022-10-16T11:00:58.957Z,33.76
2022-10-16T11:06:28.476Z,34.24
2022-10-16T11:11:58.749Z,33.61
2022-10-16T11:17:27.587Z,33.90
2022-10-16T11:23:00.246Z,34.03
2022-10-16T11:28:31.775Z,34.88
2022-10-16T11:34:04.165Z,33.79
2022-10-16T11:39:32.039Z,34.24
2022-10-16T11:45:02.977Z,35.25
2022-10-16T11:50:33.884Z,35.47
2022-10-16T11:56:00.664Z,35.11
2022-10-16T12:01:33.890Z,35.41
2022-10-16T12:07:07.783Z,35.12
2022-10-16T12:12:41.476Z,35.64
2022-10-16T12:18:05.838Z,35.77
2022-10-16T12:23:30.184Z,36.08
2022-10-16T12:28:56.834Z,36.04
2022-10-16T12:34:25.808Z,35.51
2022-10-16T12:39:51.381Z,35.54
2022-10-16T12:45:26.966Z,35.34
2022-10-16T12:50:50.983Z,35.71
2022-10-16T12:56:26.555Z,36.00
2022-10-16T13:02:17.062Z,35.90
2022-10-16T13:07:54.916Z,35.78
2022-10-16T13:13:34.878Z,36.29
2022-10-16T13:19:17.608Z,36.35
2022-10-16T13:24:56.104Z,36.52
2022-10-16T13:30:28.155Z,36.66
2022-10-16T13:36:00.382Z,37.35
2022-10-16T13:41:24.484Z,37.57
2022-10-16T13:46:48.902Z,37.53
2022-10-16T13:52:20.877Z,37.44
2022-10-16T13:57:45.698Z,38.03
2022-10-16T14:03:17.346Z,38.02
2022-10-16T14:08:47.046Z,37.70
2022-10-16T14:14:13.663Z,38.61
2022-10-16T14:19:38.813Z,39.87
2022-10-16T14:25:18.882Z,40.15
2022-10-16T14:30:53.140Z,40.75
2022-10-16T14:36:20.425Z,41.41
2022-10-16T14:41:49.912Z,41.87
2022-10-16T14:47:23.264Z,42.24
2022-10-16T14:52:48.142Z,43.50
2022-10-16T14:58:18.585Z,44.00
2022-10-16T15:03:43.198Z,44.77
2022-10-16T15:09:08.638Z,45.96
2022-10-16T15:14:34.473Z,46.80
2022-10-16T15:20:00.195Z,47.03
2022-10-16T15:25:33.827Z,47.56
2022-10-16T15:31:01.230Z,48.17
2022-10-16T15:36:28.923Z,48.82
2022-10-16T15:41:54.419Z,48.93
2022-10-16T15:47:20.600Z,49.13
2022-10-16T15:52:45.167Z,49.10
2022-10-16T15:58:10.660Z,49.57
2022-10-16T16:03:36.884Z,50.19
2022-10-16T16:14:28.313Z,51.63
2022-10-16T16:19:54.398Z,52.49
2022-10-16T16:25:18.726Z,52.35
2022-10-16T16:30:43.249Z,52.59
2022-10-16T16:36:15.344Z,52.64
2022-10-16T16:41:40.200Z,53.81
2022-10-16T16:47:05.654Z,54.55
2022-10-16T16:52:32.809Z,55.76
2022-10-16T16:57:58.674Z,59.53
2022-10-16T17:03:24.120Z,61.58
2022-10-16T17:08:50.650Z,62.65
2022-10-16T17:14:16.271Z,64.68
2022-10-16T17:19:42.373Z,63.68
2022-10-16T17:25:09.399Z,63.26
2022-10-16T17:30:35.582Z,61.51
2022-10-16T17:36:03.491Z,60.55
2022-10-16T17:41:29.784Z,61.21
2022-10-16T17:46:55.284Z,60.88
2022-10-16T17:52:20.144Z,60.50
2022-10-16T17:57:46.281Z,60.41
2022-10-16T18:03:11.689Z,59.90
2022-10-16T18:08:36.727Z,60.07
2022-10-16T18:14:03.875Z,59.93
2022-10-16T18:19:28.447Z,59.89
2022-10-16T18:24:52.653Z,60.88
2022-10-16T18:30:18.327Z,60.42
2022-10-16T18:35:44.005Z,60.04
2022-10-16T18:41:08.582Z,59.49
2022-10-16T18:46:34.602Z,60.44
2022-10-16T18:52:00.609Z,60.50
2022-10-16T18:57:30.161Z,59.63
2022-10-16T19:02:56.498Z,60.25
2022-10-16T19:08:20.317Z,61.63
2022-10-16T19:13:47.869Z,63.66
2022-10-16T19:19:18.245Z,64.79
2022-10-16T19:24:45.046Z,65.29
2022-10-16T19:35:41.687Z,67.92
2022-10-16T19:41:07.761Z,68.78
2022-10-16T19:46:33.733Z,70.47
2022-10-16T19:51:59.663Z,71.07
2022-10-16T19:57:27.344Z,72.61
2022-10-16T20:02:51.875Z,73.00
2022-10-16T20:08:17.985Z,73.62
2022-10-16T20:13:42.622Z,74.00
2022-10-16T20:19:08.142Z,75.38
2022-10-16T20:24:34.709Z,75.27
2022-10-16T20:29:59.570Z,74.94
2022-10-16T20:35:24.890Z,75.00
2022-10-16T20:40:51.075Z,74.89
2022-10-16T20:46:21.846Z,76.42
2022-10-16T20:51:49.838Z,77.72
2022-10-16T20:57:16.985Z,78.49
2022-10-16T21:02:41.515Z,79.39
2022-10-16T21:08:05.782Z,80.23
2022-10-16T21:13:31.526Z,80.74
2022-10-16T21:18:56.201Z,81.47
2022-10-16T21:24:20.827Z,83.23
2022-10-16T21:29:49.526Z,85.50
2022-10-16T21:35:13.535Z,87.79
2022-10-16T21:40:37.785Z,89.26
2022-10-16T21:46:03.850Z,89.78
2022-10-16T21:51:29.302Z,90.33
2022-10-16T21:56:53.873Z,90.26
2022-10-16T22:02:19.440Z,90.07
2022-10-16T22:07:43.148Z,90.34
2022-10-16T22:13:08.486Z,90.76
2022-10-16T22:18:35.709Z,91.85
2022-10-16T22:24:00.830Z,91.22
2022-10-16T22:29:26.130Z,90.53
2022-10-16T22:34:52.004Z,89.96
2022-10-16T22:40:16.897Z,90.16
2022-10-16T22:45:41.261Z,90.36
2022-10-16T22:51:08.389Z,89.85
2022-10-16T22:56:33.145Z,89.85
2022-10-16T23:01:59.225Z,89.84
2022-10-16T23:07:25.139Z,90.17
2022-10-16T23:12:49.575Z,90.74
2022-10-16T23:18:14.796Z,94.39
2022-10-16T23:23:43.101Z,98.22
2022-10-16T23:29:07.965Z,100.00
2022-10-16T23:34:32.625Z,100.00
2022-10-16T23:39:58.405Z,99.32
2022-10-16T23:45:22.891Z,98.60
2022-10-16T23:50:47.921Z,98.24
2022-10-16T23:56:15.061Z,97.99
